sensor_id;sensor_type;location;lat;lon;timestamp;pressure;altitude;pressure_sealevel;temperature;humidity
46583;BME280;32309;48.858;8.252;2023-06-04T00:01:05;100242.97;;;16.68;52.29
46583;BME280;32309;48.858;8.252;2023-06-04T00:03:10;100245.59;;;16.68;52.28
46583;BME280;32309;48.858;8.252;2023-06-04T00:05:20;100248.59;;;16.63;52.25
46583;BME280;32309;48.858;8.252;2023-06-04T00:07:31;100240.28;;;16.58;52.38
46583;BME280;32309;48.858;8.252;2023-06-04T00:09:44;100239.66;;;16.45;53.09
46583;BME280;32309;48.858;8.252;2023-06-04T00:11:52;100235.13;;;16.47;52.77
46583;BME280;32309;48.858;8.252;2023-06-04T00:13:55;100230.78;;;16.36;53.82
46583;BME280;32309;48.858;8.252;2023-06-04T00:15:58;100235.81;;;16.28;53.39
46583;BME280;32309;48.858;8.252;2023-06-04T00:18:10;100240.44;;;16.24;54.60
46583;BME280;32309;48.858;8.252;2023-06-04T00:20:20;100241.03;;;16.28;53.79
46583;BME280;32309;48.858;8.252;2023-06-04T00:22:33;100237.34;;;16.30;53.40
46583;BME280;32309;48.858;8.252;2023-06-04T00:24:43;100231.91;;;16.22;53.46
46583;BME280;32309;48.858;8.252;2023-06-04T00:26:44;100238.91;;;16.22;55.22
46583;BME280;32309;48.858;8.252;2023-06-04T00:28:58;100232.50;;;16.26;54.25
46583;BME280;32309;48.858;8.252;2023-06-04T00:31:15;100242.97;;;16.26;53.36
46583;BME280;32309;48.858;8.252;2023-06-04T00:33:23;100238.50;;;16.17;53.12
46583;BME280;32309;48.858;8.252;2023-06-04T00:35:36;100239.56;;;16.14;53.18
46583;BME280;32309;48.858;8.252;2023-06-04T00:37:46;100236.53;;;15.97;53.76
46583;BME280;32309;48.858;8.252;2023-06-04T00:39:57;100231.78;;;15.91;53.66
46583;BME280;32309;48.858;8.252;2023-06-04T00:41:57;100235.47;;;15.89;53.99
46583;BME280;32309;48.858;8.252;2023-06-04T00:44:07;100231.22;;;15.88;53.59
46583;BME280;32309;48.858;8.252;2023-06-04T00:46:33;100240.47;;;15.92;53.65
46583;BME280;32309;48.858;8.252;2023-06-04T00:48:54;100233.13;;;15.86;53.30
46583;BME280;32309;48.858;8.252;2023-06-04T00:51:07;100243.09;;;15.80;53.64
46583;BME280;32309;48.858;8.252;2023-06-04T00:53:10;100249.25;;;15.79;53.75
46583;BME280;32309;48.858;8.252;2023-06-04T00:55:41;100247.97;;;15.74;53.38
46583;BME280;32309;48.858;8.252;2023-06-04T00:57:46;100243.69;;;15.73;53.57
46583;BME280;32309;48.858;8.252;2023-06-04T00:59:57;100243.69;;;15.73;53.40
46583;BME280;32309;48.858;8.252;2023-06-04T01:07:08;100243.00;;;15.59;53.56
46583;BME280;32309;48.858;8.252;2023-06-04T01:09:31;100248.59;;;15.55;53.69
46583;BME280;32309;48.858;8.252;2023-06-04T01:11:44;100251.56;;;15.50;53.55
46583;BME280;32309;48.858;8.252;2023-06-04T01:14:04;100245.88;;;15.45;53.78
46583;BME280;32309;48.858;8.252;2023-06-04T01:16:21;100259.53;;;15.37;54.29
46583;BME280;32309;48.858;8.252;2023-06-04T01:18:47;100245.28;;;15.41;53.58
46583;BME280;32309;48.858;8.252;2023-06-04T01:21:20;100246.72;;;15.34;53.49
46583;BME280;32309;48.858;8.252;2023-06-04T01:23:37;100254.06;;;15.29;53.62
46583;BME280;32309;48.858;8.252;2023-06-04T01:29:02;100249.69;;;15.18;53.88
46583;BME280;32309;48.858;8.252;2023-06-04T01:35:15;100250.53;;;15.07;54.42
46583;BME280;32309;48.858;8.252;2023-06-04T01:37:38;100253.34;;;15.04;54.47
46583;BME280;32309;48.858;8.252;2023-06-04T01:43:01;100248.03;;;15.06;53.64
46583;BME280;32309;48.858;8.252;2023-06-04T01:48:32;100250.53;;;15.07;53.04
46583;BME280;32309;48.858;8.252;2023-06-04T01:53:40;100257.16;;;15.00;52.91
46583;BME280;32309;48.858;8.252;2023-06-04T01:55:45;100259.16;;;14.96;52.82
46583;BME280;32309;48.858;8.252;2023-06-04T01:58:31;100269.34;;;14.88;53.09
46583;BME280;32309;48.858;8.252;2023-06-04T02:00:52;100256.91;;;14.92;52.51
46583;BME280;32309;48.858;8.252;2023-06-04T02:03:32;100262.69;;;14.84;52.78
46583;BME280;32309;48.858;8.252;2023-06-04T02:05:46;100261.53;;;14.77;52.56
46583;BME280;32309;48.858;8.252;2023-06-04T02:08:34;100264.47;;;14.72;52.58
46583;BME280;32309;48.858;8.252;2023-06-04T02:10:46;100258.75;;;14.67;53.00
46583;BME280;32309;48.858;8.252;2023-06-04T02:13:16;100257.28;;;14.63;52.71
46583;BME280;32309;48.858;8.252;2023-06-04T02:21:16;100251.59;;;14.58;52.34
46583;BME280;32309;48.858;8.252;2023-06-04T02:26:53;100264.50;;;14.48;52.27
46583;BME280;32309;48.858;8.252;2023-06-04T02:29:06;100258.66;;;14.44;52.48
46583;BME280;32309;48.858;8.252;2023-06-04T02:37:10;100265.50;;;14.34;52.17
46583;BME280;32309;48.858;8.252;2023-06-04T02:39:29;100258.84;;;14.30;52.27
46583;BME280;32309;48.858;8.252;2023-06-04T03:08:21;100271.34;;;14.13;51.74
46583;BME280;32309;48.858;8.252;2023-06-04T06:06:19;100341.81;;;15.88;47.50
46583;BME280;32309;48.858;8.252;2023-06-04T06:08:52;100334.31;;;15.72;48.38
46583;BME280;32309;48.858;8.252;2023-06-04T06:14:10;100339.53;;;15.61;49.17
46583;BME280;32309;48.858;8.252;2023-06-04T06:16:44;100341.69;;;15.78;48.92
46583;BME280;32309;48.858;8.252;2023-06-04T06:25:02;100334.19;;;16.40;47.90
46583;BME280;32309;48.858;8.252;2023-06-04T06:27:48;100332.00;;;16.57;47.35
46583;BME280;32309;48.858;8.252;2023-06-04T06:37:24;100347.78;;;16.88;46.46
46583;BME280;32309;48.858;8.252;2023-06-04T06:40:10;100349.16;;;17.03;47.18
46583;BME280;32309;48.858;8.252;2023-06-04T06:42:52;100354.97;;;17.28;46.54
46583;BME280;32309;48.858;8.252;2023-06-04T06:48:30;100357.56;;;17.59;46.32
46583;BME280;32309;48.858;8.252;2023-06-04T06:53:34;100357.50;;;17.70;46.53
46583;BME280;32309;48.858;8.252;2023-06-04T06:55:50;100360.84;;;17.82;46.26
46583;BME280;32309;48.858;8.252;2023-06-04T06:57:58;100357.41;;;17.91;45.13
46583;BME280;32309;48.858;8.252;2023-06-04T07:02:56;100353.59;;;17.95;45.05
46583;BME280;32309;48.858;8.252;2023-06-04T07:05:08;100358.69;;;17.97;45.56
46583;BME280;32309;48.858;8.252;2023-06-04T07:07:18;100361.06;;;18.10;45.17
46583;BME280;32309;48.858;8.252;2023-06-04T07:09:29;100363.41;;;18.13;44.98
46583;BME280;32309;48.858;8.252;2023-06-04T07:11:32;100375.19;;;18.19;44.99
46583;BME280;32309;48.858;8.252;2023-06-04T07:13:32;100360.84;;;18.23;44.76
46583;BME280;32309;48.858;8.252;2023-06-04T07:16:01;100363.88;;;18.28;44.89
46583;BME280;32309;48.858;8.252;2023-06-04T07:18:22;100366.06;;;18.33;44.99
46583;BME280;32309;48.858;8.252;2023-06-04T07:20:38;100362.22;;;18.37;45.47
46583;BME280;32309;48.858;8.252;2023-06-04T07:22:55;100375.34;;;18.46;45.27
46583;BME280;32309;48.858;8.252;2023-06-04T07:25:17;100369.53;;;18.53;44.46
46583;BME280;32309;48.858;8.252;2023-06-04T07:27:30;100375.63;;;18.53;44.38
46583;BME280;32309;48.858;8.252;2023-06-04T07:29:52;100369.69;;;18.61;44.61
46583;BME280;32309;48.858;8.252;2023-06-04T07:34:33;100364.16;;;18.74;43.79
46583;BME280;32309;48.858;8.252;2023-06-04T07:36:43;100376.34;;;18.65;43.56
46583;BME280;32309;48.858;8.252;2023-06-04T07:38:53;100369.41;;;18.64;43.67
46583;BME280;32309;48.858;8.252;2023-06-04T07:41:15;100373.13;;;18.71;43.53
46583;BME280;32309;48.858;8.252;2023-06-04T07:43:34;100371.06;;;18.85;43.57
46583;BME280;32309;48.858;8.252;2023-06-04T07:46:02;100365.84;;;18.94;43.87
46583;BME280;32309;48.858;8.252;2023-06-04T07:48:22;100367.47;;;19.15;43.82
46583;BME280;32309;48.858;8.252;2023-06-04T07:50:39;100363.44;;;19.21;43.43
46583;BME280;32309;48.858;8.252;2023-06-04T07:52:49;100374.09;;;19.19;43.37
46583;BME280;32309;48.858;8.252;2023-06-04T07:54:50;100367.72;;;19.12;43.39
46583;BME280;32309;48.858;8.252;2023-06-04T07:57:06;100368.84;;;19.09;43.23
46583;BME280;32309;48.858;8.252;2023-06-04T07:59:20;100365.69;;;19.06;43.61
46583;BME280;32309;48.858;8.252;2023-06-04T08:01:30;100371.19;;;19.03;43.21
46583;BME280;32309;48.858;8.252;2023-06-04T08:03:31;100364.72;;;18.97;43.76
46583;BME280;32309;48.858;8.252;2023-06-04T08:05:41;100369.41;;;18.93;43.49
46583;BME280;32309;48.858;8.252;2023-06-04T08:07:41;100364.47;;;18.90;43.61
46583;BME280;32309;48.858;8.252;2023-06-04T08:09:43;100358.91;;;18.84;43.64
46583;BME280;32309;48.858;8.252;2023-06-04T08:11:45;100375.47;;;18.84;44.03
46583;BME280;32309;48.858;8.252;2023-06-04T08:13:45;100361.00;;;18.90;43.64
46583;BME280;32309;48.858;8.252;2023-06-04T08:15:46;100362.25;;;18.95;43.70
46583;BME280;32309;48.858;8.252;2023-06-04T08:17:46;100366.09;;;19.11;44.02
46583;BME280;32309;48.858;8.252;2023-06-04T08:19:46;100367.69;;;19.32;43.54
46583;BME280;32309;48.858;8.252;2023-06-04T08:21:47;100359.91;;;19.40;43.10
46583;BME280;32309;48.858;8.252;2023-06-04T08:23:47;100365.28;;;19.48;43.71
46583;BME280;32309;48.858;8.252;2023-06-04T08:25:47;100360.69;;;19.60;43.58
46583;BME280;32309;48.858;8.252;2023-06-04T08:27:47;100357.44;;;19.66;43.36
46583;BME280;32309;48.858;8.252;2023-06-04T08:29:48;100362.97;;;19.73;42.85
46583;BME280;32309;48.858;8.252;2023-06-04T08:31:48;100367.09;;;19.75;42.34
46583;BME280;32309;48.858;8.252;2023-06-04T08:33:48;100357.03;;;19.71;43.18
46583;BME280;32309;48.858;8.252;2023-06-04T08:35:49;100352.28;;;19.84;42.36
46583;BME280;32309;48.858;8.252;2023-06-04T08:37:49;100349.06;;;19.90;42.53
46583;BME280;32309;48.858;8.252;2023-06-04T08:39:50;100350.53;;;20.03;42.12
46583;BME280;32309;48.858;8.252;2023-06-04T08:41:54;100350.22;;;20.06;42.56
46583;BME280;32309;48.858;8.252;2023-06-04T08:43:59;100362.47;;;20.15;42.18
46583;BME280;32309;48.858;8.252;2023-06-04T08:46:03;100362.97;;;20.28;41.81
46583;BME280;32309;48.858;8.252;2023-06-04T08:48:09;100364.00;;;20.36;42.11
46583;BME280;32309;48.858;8.252;2023-06-04T08:50:16;100370.03;;;20.46;41.97
46583;BME280;32309;48.858;8.252;2023-06-04T08:52:28;100359.13;;;20.59;41.47
46583;BME280;32309;48.858;8.252;2023-06-04T08:54:29;100358.97;;;20.60;41.91
46583;BME280;32309;48.858;8.252;2023-06-04T08:56:31;100357.38;;;20.68;41.79
46583;BME280;32309;48.858;8.252;2023-06-04T08:58:32;100367.56;;;20.81;41.34
46583;BME280;32309;48.858;8.252;2023-06-04T09:00:35;100364.38;;;20.95;40.93
46583;BME280;32309;48.858;8.252;2023-06-04T09:02:38;100368.19;;;21.01;40.95
46583;BME280;32309;48.858;8.252;2023-06-04T09:04:39;100369.53;;;21.05;41.29
46583;BME280;32309;48.858;8.252;2023-06-04T09:06:40;100380.66;;;21.17;41.37
46583;BME280;32309;48.858;8.252;2023-06-04T09:08:42;100372.59;;;21.18;40.91
46583;BME280;32309;48.858;8.252;2023-06-04T09:10:44;100364.53;;;21.20;41.13
46583;BME280;32309;48.858;8.252;2023-06-04T09:12:49;100368.41;;;21.34;41.12
46583;BME280;32309;48.858;8.252;2023-06-04T09:14:52;100369.28;;;21.42;40.31
46583;BME280;32309;48.858;8.252;2023-06-04T09:16:52;100377.03;;;21.44;40.14
46583;BME280;32309;48.858;8.252;2023-06-04T09:18:55;100364.69;;;21.44;40.47
46583;BME280;32309;48.858;8.252;2023-06-04T09:23:12;100367.59;;;21.59;39.99
46583;BME280;32309;48.858;8.252;2023-06-04T09:27:21;100367.00;;;21.74;39.90
46583;BME280;32309;48.858;8.252;2023-06-04T09:29:22;100373.91;;;21.75;39.90
46583;BME280;32309;48.858;8.252;2023-06-04T09:31:22;100370.97;;;21.86;40.05
46583;BME280;32309;48.858;8.252;2023-06-04T09:33:26;100373.28;;;21.89;40.32
46583;BME280;32309;48.858;8.252;2023-06-04T09:35:27;100366.56;;;22.03;39.66
46583;BME280;32309;48.858;8.252;2023-06-04T09:37:27;100363.47;;;22.16;39.27
46583;BME280;32309;48.858;8.252;2023-06-04T09:39:28;100359.53;;;22.28;38.83
46583;BME280;32309;48.858;8.252;2023-06-04T09:41:28;100363.34;;;22.34;39.44
46583;BME280;32309;48.858;8.252;2023-06-04T09:43:28;100345.25;;;22.56;37.68
46583;BME280;32309;48.858;8.252;2023-06-04T09:47:38;100356.47;;;22.66;37.09
46583;BME280;32309;48.858;8.252;2023-06-04T09:49:43;100356.47;;;22.66;37.02
46583;BME280;32309;48.858;8.252;2023-06-04T09:51:46;100349.03;;;22.70;37.17
46583;BME280;32309;48.858;8.252;2023-06-04T09:53:58;100351.66;;;22.70;37.92
46583;BME280;32309;48.858;8.252;2023-06-04T09:56:00;100355.94;;;22.79;36.11
46583;BME280;32309;48.858;8.252;2023-06-04T09:58:03;100346.06;;;22.81;37.57
46583;BME280;32309;48.858;8.252;2023-06-04T10:00:05;100348.38;;;22.92;36.63
46583;BME280;32309;48.858;8.252;2023-06-04T10:02:11;100345.88;;;22.99;37.36
46583;BME280;32309;48.858;8.252;2023-06-04T10:04:13;100346.19;;;23.04;37.67
46583;BME280;32309;48.858;8.252;2023-06-04T10:06:15;100346.03;;;23.06;37.76
46583;BME280;32309;48.858;8.252;2023-06-04T10:08:16;100349.81;;;23.03;37.02
46583;BME280;32309;48.858;8.252;2023-06-04T10:10:23;100345.03;;;22.99;36.35
46583;BME280;32309;48.858;8.252;2023-06-04T10:12:26;100340.09;;;22.96;37.25
46583;BME280;32309;48.858;8.252;2023-06-04T10:14:34;100330.97;;;23.06;37.20
46583;BME280;32309;48.858;8.252;2023-06-04T10:16:41;100341.88;;;23.20;37.28
46583;BME280;32309;48.858;8.252;2023-06-04T10:18:42;100349.50;;;23.23;36.00
46583;BME280;32309;48.858;8.252;2023-06-04T10:20:43;100341.38;;;23.24;35.92
46583;BME280;32309;48.858;8.252;2023-06-04T10:22:43;100339.38;;;23.26;35.31
46583;BME280;32309;48.858;8.252;2023-06-04T10:24:45;100344.53;;;23.28;36.10
46583;BME280;32309;48.858;8.252;2023-06-04T10:26:45;100339.84;;;23.38;35.80
46583;BME280;32309;48.858;8.252;2023-06-04T10:28:45;100339.84;;;23.38;36.01
46583;BME280;32309;48.858;8.252;2023-06-04T10:30:49;100341.59;;;23.54;35.26
46583;BME280;32309;48.858;8.252;2023-06-04T10:32:50;100337.63;;;23.58;35.45
46583;BME280;32309;48.858;8.252;2023-06-04T10:34:51;100332.47;;;23.65;34.86
46583;BME280;32309;48.858;8.252;2023-06-04T10:36:51;100344.00;;;23.72;34.99
46583;BME280;32309;48.858;8.252;2023-06-04T10:38:55;100335.44;;;23.70;35.65
46583;BME280;32309;48.858;8.252;2023-06-04T10:40:58;100322.34;;;23.77;35.68
46583;BME280;32309;48.858;8.252;2023-06-04T10:43:04;100339.34;;;23.83;35.46
46583;BME280;32309;48.858;8.252;2023-06-04T10:45:06;100332.50;;;23.97;35.56
46583;BME280;32309;48.858;8.252;2023-06-04T10:47:18;100329.16;;;24.03;33.98
46583;BME280;32309;48.858;8.252;2023-06-04T10:49:28;100333.81;;;24.01;34.46
46583;BME280;32309;48.858;8.252;2023-06-04T10:51:29;100329.63;;;24.06;34.56
46583;BME280;32309;48.858;8.252;2023-06-04T10:53:36;100339.53;;;24.13;33.61
46583;BME280;32309;48.858;8.252;2023-06-04T10:55:43;100334.06;;;24.14;34.50
46583;BME280;32309;48.858;8.252;2023-06-04T10:57:59;100331.16;;;24.24;33.98
46583;BME280;32309;48.858;8.252;2023-06-04T11:00:01;100322.75;;;24.20;33.68
46583;BME280;32309;48.858;8.252;2023-06-04T11:02:06;100319.16;;;24.13;34.52
46583;BME280;32309;48.858;8.252;2023-06-04T11:04:17;100324.34;;;24.30;34.12
46583;BME280;32309;48.858;8.252;2023-06-04T11:06:25;100321.72;;;24.30;33.59
46583;BME280;32309;48.858;8.252;2023-06-04T11:08:30;100316.13;;;24.24;33.60
46583;BME280;32309;48.858;8.252;2023-06-04T11:10:41;100321.84;;;24.28;34.43
46583;BME280;32309;48.858;8.252;2023-06-04T11:14:55;100323.28;;;24.39;34.47
46583;BME280;32309;48.858;8.252;2023-06-04T11:16:56;100323.94;;;24.56;33.69
46583;BME280;32309;48.858;8.252;2023-06-04T11:18:57;100325.28;;;24.60;32.77
46583;BME280;32309;48.858;8.252;2023-06-04T11:20:59;100320.13;;;24.58;33.55
46583;BME280;32309;48.858;8.252;2023-06-04T11:23:01;100322.16;;;24.56;33.67
46583;BME280;32309;48.858;8.252;2023-06-04T11:25:03;100321.59;;;24.61;33.41
46583;BME280;32309;48.858;8.252;2023-06-04T11:27:03;100324.84;;;24.71;33.12
46583;BME280;32309;48.858;8.252;2023-06-04T11:29:08;100326.78;;;24.78;32.10
46583;BME280;32309;48.858;8.252;2023-06-04T11:31:11;100318.47;;;24.81;32.74
46583;BME280;32309;48.858;8.252;2023-06-04T11:33:11;100314.91;;;24.73;32.43
46583;BME280;32309;48.858;8.252;2023-06-04T11:35:12;100327.03;;;24.68;32.67
46583;BME280;32309;48.858;8.252;2023-06-04T11:37:12;100313.06;;;24.74;32.95
46583;BME280;32309;48.858;8.252;2023-06-04T11:39:13;100318.03;;;24.92;32.78
46583;BME280;32309;48.858;8.252;2023-06-04T11:41:15;100314.72;;;24.90;32.52
46583;BME280;32309;48.858;8.252;2023-06-04T11:43:16;100314.09;;;24.88;32.42
46583;BME280;32309;48.858;8.252;2023-06-04T11:45:17;100319.50;;;24.95;32.72
46583;BME280;32309;48.858;8.252;2023-06-04T11:47:27;100312.00;;;24.98;31.57
46583;BME280;32309;48.858;8.252;2023-06-04T11:49:36;100310.38;;;24.97;31.56
46583;BME280;32309;48.858;8.252;2023-06-04T11:51:37;100312.56;;;24.94;31.94
46583;BME280;32309;48.858;8.252;2023-06-04T11:53:37;100319.84;;;24.91;32.31
46583;BME280;32309;48.858;8.252;2023-06-04T11:55:39;100319.13;;;24.98;32.47
46583;BME280;32309;48.858;8.252;2023-06-04T11:57:40;100304.31;;;25.03;31.29
46583;BME280;32309;48.858;8.252;2023-06-04T11:59:41;100303.88;;;25.00;31.84
46583;BME280;32309;48.858;8.252;2023-06-04T12:01:42;100306.97;;;25.03;31.09
46583;BME280;32309;48.858;8.252;2023-06-04T12:03:43;100312.00;;;24.98;32.14
46583;BME280;32309;48.858;8.252;2023-06-04T12:05:43;100299.09;;;25.10;31.75
46583;BME280;32309;48.858;8.252;2023-06-04T12:07:44;100309.72;;;25.10;31.69
46583;BME280;32309;48.858;8.252;2023-06-04T12:09:45;100310.63;;;25.17;31.65
46583;BME280;32309;48.858;8.252;2023-06-04T12:11:45;100300.22;;;25.16;31.70
46583;BME280;32309;48.858;8.252;2023-06-04T12:13:46;100293.44;;;25.13;30.82
46583;BME280;32309;48.858;8.252;2023-06-04T12:15:54;100290.72;;;25.06;31.70
46583;BME280;32309;48.858;8.252;2023-06-04T12:17:54;100301.50;;;25.20;31.78
46583;BME280;32309;48.858;8.252;2023-06-04T12:19:54;100292.91;;;25.33;30.83
46583;BME280;32309;48.858;8.252;2023-06-04T12:21:59;100298.75;;;25.28;30.82
46583;BME280;32309;48.858;8.252;2023-06-04T12:28:46;100302.66;;;25.32;31.23
46583;BME280;32309;48.858;8.252;2023-06-04T12:30:58;100288.31;;;25.41;31.02
46583;BME280;32309;48.858;8.252;2023-06-04T12:32:59;100294.91;;;25.46;30.15
46583;BME280;32309;48.858;8.252;2023-06-04T12:34:59;100301.50;;;25.50;29.42
46583;BME280;32309;48.858;8.252;2023-06-04T12:37:00;100295.34;;;25.49;30.29
46583;BME280;32309;48.858;8.252;2023-06-04T12:39:02;100301.75;;;25.55;29.92
46583;BME280;32309;48.858;8.252;2023-06-04T12:41:08;100301.84;;;25.62;30.15
46583;BME280;32309;48.858;8.252;2023-06-04T12:43:19;100300.19;;;25.61;29.25
46583;BME280;32309;48.858;8.252;2023-06-04T12:45:19;100303.03;;;25.59;29.04
46583;BME280;32309;48.858;8.252;2023-06-04T12:47:20;100292.59;;;25.57;29.25
46583;BME280;32309;48.858;8.252;2023-06-04T12:49:21;100305.50;;;25.61;28.79
46583;BME280;32309;48.858;8.252;2023-06-04T12:51:24;100298.66;;;25.51;28.49
46583;BME280;32309;48.858;8.252;2023-06-04T12:53:24;100300.66;;;25.49;29.00
46583;BME280;32309;48.858;8.252;2023-06-04T12:55:24;100296.19;;;25.50;28.98
46583;BME280;32309;48.858;8.252;2023-06-04T12:57:27;100301.13;;;25.53;29.47
46583;BME280;32309;48.858;8.252;2023-06-04T12:59:31;100301.31;;;25.51;30.10
46583;BME280;32309;48.858;8.252;2023-06-04T13:01:31;100299.09;;;25.55;29.02
46583;BME280;32309;48.858;8.252;2023-06-04T13:03:31;100289.06;;;25.50;28.51
46583;BME280;32309;48.858;8.252;2023-06-04T13:05:32;100295.44;;;25.56;28.37
46583;BME280;32309;48.858;8.252;2023-06-04T13:07:33;100285.66;;;25.56;28.04
46583;BME280;32309;48.858;8.252;2023-06-04T13:09:33;100284.19;;;25.54;28.20
46583;BME280;32309;48.858;8.252;2023-06-04T13:11:38;100291.31;;;25.53;28.25
46583;BME280;32309;48.858;8.252;2023-06-04T13:13:40;100291.31;;;25.53;28.01
46583;BME280;32309;48.858;8.252;2023-06-04T13:15:43;100284.00;;;25.55;28.45
46583;BME280;32309;48.858;8.252;2023-06-04T13:17:45;100295.09;;;25.59;28.67
46583;BME280;32309;48.858;8.252;2023-06-04T13:19:45;100296.53;;;25.62;28.21
46583;BME280;32309;48.858;8.252;2023-06-04T13:21:45;100286.94;;;25.61;27.71
46583;BME280;32309;48.858;8.252;2023-06-04T13:23:46;100291.97;;;25.55;28.04
46583;BME280;32309;48.858;8.252;2023-06-04T13:25:46;100288.66;;;25.68;28.08
46583;BME280;32309;48.858;8.252;2023-06-04T13:27:47;100285.72;;;25.63;28.05
46583;BME280;32309;48.858;8.252;2023-06-04T13:29:48;100305.78;;;25.66;28.23
46583;BME280;32309;48.858;8.252;2023-06-04T13:31:48;100299.63;;;25.65;28.16
46583;BME280;32309;48.858;8.252;2023-06-04T13:33:49;100297.16;;;25.64;27.81
46583;BME280;32309;48.858;8.252;2023-06-04T13:35:49;100304.84;;;25.58;27.83
46583;BME280;32309;48.858;8.252;2023-06-04T13:37:50;100284.81;;;25.56;28.23
46583;BME280;32309;48.858;8.252;2023-06-04T13:39:50;100287.81;;;25.68;28.28
46583;BME280;32309;48.858;8.252;2023-06-04T13:41:51;100290.34;;;25.76;28.37
46583;BME280;32309;48.858;8.252;2023-06-04T13:43:51;100295.75;;;25.83;27.95
46583;BME280;32309;48.858;8.252;2023-06-04T13:45:52;100293.72;;;25.85;28.68
46583;BME280;32309;48.858;8.252;2023-06-04T13:47:52;100296.44;;;25.91;27.37
46583;BME280;32309;48.858;8.252;2023-06-04T13:49:52;100283.09;;;25.85;26.95
46583;BME280;32309;48.858;8.252;2023-06-04T13:51:53;100290.00;;;25.79;27.71
46583;BME280;32309;48.858;8.252;2023-06-04T13:53:53;100290.44;;;25.83;28.05
46583;BME280;32309;48.858;8.252;2023-06-04T13:55:54;100292.06;;;25.84;27.43
46583;BME280;32309;48.858;8.252;2023-06-04T13:57:57;100291.25;;;25.83;27.83
46583;BME280;32309;48.858;8.252;2023-06-04T13:59:58;100278.59;;;25.85;27.68
46583;BME280;32309;48.858;8.252;2023-06-04T14:01:59;100267.94;;;26.00;28.10
46583;BME280;32309;48.858;8.252;2023-06-04T14:03:59;100285.22;;;26.11;27.26
46583;BME280;32309;48.858;8.252;2023-06-04T14:06:00;100283.31;;;26.05;27.21
46583;BME280;32309;48.858;8.252;2023-06-04T14:08:02;100278.09;;;25.97;27.32
46583;BME280;32309;48.858;8.252;2023-06-04T14:10:05;100274.84;;;25.95;27.37
46583;BME280;32309;48.858;8.252;2023-06-04T14:12:07;100279.50;;;25.92;27.63
46583;BME280;32309;48.858;8.252;2023-06-04T14:14:07;100264.03;;;25.96;27.96
46583;BME280;32309;48.858;8.252;2023-06-04T14:16:08;100259.91;;;25.94;27.79
46583;BME280;32309;48.858;8.252;2023-06-04T14:18:08;100264.28;;;26.01;27.38
46583;BME280;32309;48.858;8.252;2023-06-04T14:20:08;100264.72;;;26.05;27.65
46583;BME280;32309;48.858;8.252;2023-06-04T14:22:10;100261.44;;;26.03;27.60
46583;BME280;32309;48.858;8.252;2023-06-04T14:24:11;100261.56;;;25.95;27.82
46583;BME280;32309;48.858;8.252;2023-06-04T14:26:13;100263.91;;;26.04;27.66
46583;BME280;32309;48.858;8.252;2023-06-04T14:28:13;100264.72;;;26.05;27.71
46583;BME280;32309;48.858;8.252;2023-06-04T14:30:14;100266.75;;;26.03;27.76
46583;BME280;32309;48.858;8.252;2023-06-04T14:32:14;100264.63;;;25.98;28.23
46583;BME280;32309;48.858;8.252;2023-06-04T14:34:14;100264.72;;;26.05;27.95
46583;BME280;32309;48.858;8.252;2023-06-04T14:36:14;100271.06;;;26.04;27.82
46583;BME280;32309;48.858;8.252;2023-06-04T14:38:16;100264.63;;;25.98;27.39
46583;BME280;32309;48.858;8.252;2023-06-04T14:40:16;100264.97;;;25.88;27.22
46583;BME280;32309;48.858;8.252;2023-06-04T14:42:17;100262.66;;;25.85;28.05
46583;BME280;32309;48.858;8.252;2023-06-04T14:44:18;100266.72;;;25.81;28.01
46583;BME280;32309;48.858;8.252;2023-06-04T14:46:19;100262.44;;;25.80;27.36
46583;BME280;32309;48.858;8.252;2023-06-04T14:48:19;100263.38;;;25.72;27.57
46583;BME280;32309;48.858;8.252;2023-06-04T14:50:19;100259.63;;;25.67;27.73
46583;BME280;32309;48.858;8.252;2023-06-04T14:52:22;100264.19;;;25.73;28.31
46583;BME280;32309;48.858;8.252;2023-06-04T14:54:23;100253.63;;;25.80;27.82
46583;BME280;32309;48.858;8.252;2023-06-04T14:56:23;100248.13;;;25.81;27.96
46583;BME280;32309;48.858;8.252;2023-06-04T14:58:23;100238.16;;;25.83;27.65
46583;BME280;32309;48.858;8.252;2023-06-04T15:00:26;100244.34;;;25.90;27.96
46583;BME280;32309;48.858;8.252;2023-06-04T15:02:27;100256.94;;;25.82;26.84
46583;BME280;32309;48.858;8.252;2023-06-04T15:04:29;100237.09;;;25.78;27.59
46583;BME280;32309;48.858;8.252;2023-06-04T15:06:31;100248.25;;;25.73;27.38
46583;BME280;32309;48.858;8.252;2023-06-04T15:08:32;100236.94;;;25.64;27.43
46583;BME280;32309;48.858;8.252;2023-06-04T15:10:32;100248.06;;;25.74;27.08
46583;BME280;32309;48.858;8.252;2023-06-04T15:12:34;100248.44;;;25.71;27.05
46583;BME280;32309;48.858;8.252;2023-06-04T15:14:39;100251.44;;;25.62;26.85
46583;BME280;32309;48.858;8.252;2023-06-04T15:16:42;100249.25;;;25.50;27.14
46583;BME280;32309;48.858;8.252;2023-06-04T15:18:42;100254.56;;;25.50;27.74
46583;BME280;32309;48.858;8.252;2023-06-04T15:20:42;100255.09;;;25.61;26.83
46583;BME280;32309;48.858;8.252;2023-06-04T15:22:43;100252.16;;;25.55;26.87
46583;BME280;32309;48.858;8.252;2023-06-04T15:24:43;100251.59;;;25.60;26.85
46583;BME280;32309;48.858;8.252;2023-06-04T15:26:44;100250.31;;;25.56;26.90
46583;BME280;32309;48.858;8.252;2023-06-04T15:28:45;100243.19;;;25.56;26.51
46583;BME280;32309;48.858;8.252;2023-06-04T15:30:46;100241.09;;;25.52;26.78
46583;BME280;32309;48.858;8.252;2023-06-04T15:32:46;100255.00;;;25.54;26.55
46583;BME280;32309;48.858;8.252;2023-06-04T15:34:47;100242.69;;;25.46;26.37
46583;BME280;32309;48.858;8.252;2023-06-04T15:36:47;100243.03;;;25.43;26.94
46583;BME280;32309;48.858;8.252;2023-06-04T15:38:48;100249.16;;;25.44;26.13
46583;BME280;32309;48.858;8.252;2023-06-04T15:40:49;100242.88;;;25.45;26.23